Time;durP1;ratioP1;P1;durP2;ratioP2;P2;SDS_P1;SDS_P2;PMS_P1;PMS_P2;Temp;Humidity;BMP_temperature;BMP_pressure;BME280_temperature;BME280_humidity;BME280_pressure;Samples;Min_cycle;Max_cycle;Signal;HPM_P1;HPM_P2
2022/10/14 00:02:53;;;;;;;28.30;18.97;;;13.10;99.90;;;;;;2609628;39;20516;-73
2022/10/14 00:08:42;;;;;;;32.00;18.30;;;13.10;99.90;;;;;;2608178;54;20203;-71
2022/10/14 00:14:29;;;;;;;26.67;18.77;;;13.10;99.90;;;;;;2608765;54;20422;-72
2022/10/14 00:20:17;;;;;;;23.00;18.63;;;13.20;99.90;;;;;;2608797;54;20480;-72
2022/10/14 00:26:26;;;;;;;22.60;16.90;;;13.10;99.90;;;;;;2607177;54;20166;-72
2022/10/14 00:32:13;;;;;;;20.40;17.23;;;13.10;99.90;;;;;;2607952;54;21038;-71
2022/10/14 00:38:01;;;;;;;24.33;17.47;;;13.10;99.90;;;;;;2609016;39;20516;-72
2022/10/14 00:47:09;;;;;;;26.40;16.53;;;13.10;99.90;;;;;;2607510;54;20382;-72
2022/10/14 00:52:58;;;;;;;23.23;17.03;;;13.20;99.90;;;;;;2608911;54;20378;-72
2022/10/14 00:58:45;;;;;;;22.77;17.60;;;13.10;99.90;;;;;;2607950;39;20763;-72
2022/10/14 01:04:36;;;;;;;21.20;18.17;;;13.10;99.90;;;;;;2609615;54;20399;-72
2022/10/14 01:10:46;;;;;;;24.30;17.63;;;13.00;99.90;;;;;;2608821;54;20431;-72
2022/10/14 01:23:31;;;;;;;25.73;17.20;;;13.10;99.90;;;;;;2609845;54;20542;-73
2022/10/14 01:48:31;;;;;;;23.53;19.00;;;13.00;99.90;;;;;;2614462;54;20442;-72
2022/10/14 01:54:25;;;;;;;21.87;15.83;;;13.00;99.90;;;;;;2614014;54;20446;-72
2022/10/14 02:00:13;;;;;;;26.07;18.13;;;13.00;99.90;;;;;;2613738;39;20820;-72
2022/10/14 02:06:05;;;;;;;23.03;17.70;;;13.00;99.90;;;;;;2614133;54;20370;-71
2022/10/14 02:12:01;;;;;;;23.77;17.23;;;12.90;99.90;;;;;;2611967;54;20507;-72
2022/10/14 02:17:51;;;;;;;19.90;17.07;;;12.90;99.90;;;;;;2614899;54;20394;-70
2022/10/14 02:30:25;;;;;;;23.40;18.33;;;12.90;99.90;;;;;;2611849;54;20418;-71
2022/10/14 02:36:15;;;;;;;23.93;18.83;;;13.00;99.90;;;;;;2612923;54;20384;-71
2022/10/14 02:42:04;;;;;;;23.97;19.90;;;13.00;99.90;;;;;;2615274;54;20391;-71
2022/10/14 02:47:53;;;;;;;26.50;18.80;;;12.90;99.90;;;;;;2614920;54;20527;-71
2022/10/14 02:53:41;;;;;;;25.63;18.50;;;12.90;99.90;;;;;;2613748;54;20439;-73
2022/10/14 02:59:29;;;;;;;26.13;19.93;;;12.90;99.90;;;;;;2615937;39;20596;-74
2022/10/14 03:05:16;;;;;;;26.97;20.17;;;12.90;99.90;;;;;;2615495;54;20623;-74
2022/10/14 03:11:04;;;;;;;28.63;20.03;;;12.90;99.90;;;;;;2615657;54;20193;-76
2022/10/14 03:16:52;;;;;;;28.57;21.07;;;12.90;99.90;;;;;;2614519;54;20158;-76
2022/10/14 03:22:40;;;;;;;29.03;22.53;;;12.90;99.90;;;;;;2615068;54;20246;-77
2022/10/14 03:28:28;;;;;;;32.20;23.97;;;12.90;99.90;;;;;;2614825;54;20383;-78
2022/10/14 03:34:16;;;;;;;28.60;21.73;;;12.90;99.90;;;;;;2613860;54;20131;-77
2022/10/14 03:40:05;;;;;;;29.67;22.83;;;12.90;99.90;;;;;;2615392;54;20142;-76
2022/10/14 03:45:52;;;;;;;32.17;20.80;;;12.90;99.90;;;;;;2612988;54;20410;-75
2022/10/14 03:51:40;;;;;;;31.43;20.73;;;12.80;99.90;;;;;;2615127;54;20391;-74
2022/10/14 03:57:28;;;;;;;28.37;22.07;;;12.80;99.90;;;;;;2614470;54;20122;-76
2022/10/14 04:03:15;;;;;;;29.27;21.80;;;12.80;99.90;;;;;;2614665;54;20135;-76
2022/10/14 04:09:03;;;;;;;25.30;18.30;;;12.80;99.90;;;;;;2614963;54;20203;-76
2022/10/14 04:14:55;;;;;;;24.00;20.53;;;12.80;99.90;;;;;;2615471;54;20423;-76
2022/10/14 04:20:43;;;;;;;21.03;17.70;;;12.80;99.90;;;;;;2615129;54;20456;-77
2022/10/14 04:23:28;;;;;;;22.67;20.10;;;12.80;99.90;;;;;;2614923;54;20408;-72
2022/10/14 04:25:54;;;;;;;26.70;20.80;;;12.80;99.90;;;;;;2615228;54;20174;-78
2022/10/14 04:31:42;;;;;;;25.80;19.57;;;12.80;99.90;;;;;;2614826;54;20133;-75
2022/10/14 04:37:30;;;;;;;25.23;19.83;;;12.90;99.90;;;;;;2615208;54;20133;-74
2022/10/14 04:43:18;;;;;;;24.07;20.03;;;12.80;99.90;;;;;;2615527;54;20797;-77
2022/10/14 04:49:07;;;;;;;31.87;21.43;;;12.90;99.90;;;;;;2615485;54;21017;-77
2022/10/14 04:54:54;;;;;;;27.13;19.07;;;12.90;99.90;;;;;;2615856;54;20394;-77
2022/10/14 05:00:42;;;;;;;26.53;19.70;;;12.80;99.90;;;;;;2614160;54;20281;-76
2022/10/14 05:06:30;;;;;;;29.83;20.40;;;12.80;99.90;;;;;;2614867;54;20131;-75
2022/10/14 05:12:17;;;;;;;25.17;19.20;;;12.80;99.90;;;;;;2614691;54;20123;-76
2022/10/14 05:18:06;;;;;;;24.80;17.93;;;12.90;99.90;;;;;;2614428;54;20158;-76
2022/10/14 05:28:03;;;;;;;31.77;20.03;;;12.90;99.90;;;;;;2614199;54;20423;-76
2022/10/14 05:33:51;;;;;;;27.07;19.03;;;12.90;99.90;;;;;;2614752;54;20390;-77
2022/10/14 05:39:38;;;;;;;24.23;19.90;;;12.90;99.90;;;;;;2615433;54;20149;-75
2022/10/14 05:45:26;;;;;;;23.40;16.97;;;12.90;99.90;;;;;;2614740;54;20671;-76
2022/10/14 05:51:14;;;;;;;21.40;16.93;;;12.90;99.90;;;;;;2615362;54;20146;-76
2022/10/14 05:57:02;;;;;;;24.37;16.77;;;12.90;99.90;;;;;;2615197;39;20803;-75
2022/10/14 06:02:49;;;;;;;20.93;15.50;;;13.00;99.90;;;;;;2614999;54;20202;-73
2022/10/14 06:08:37;;;;;;;20.67;14.47;;;13.00;99.90;;;;;;2613578;54;20254;-78
2022/10/14 06:14:25;;;;;;;16.60;13.70;;;13.00;99.90;;;;;;2613158;54;20162;-76
2022/10/14 06:20:13;;;;;;;19.30;13.17;;;13.10;99.90;;;;;;2614842;54;20170;-77
2022/10/14 06:23:34;;;;;;;16.70;14.00;;;13.10;99.90;;;;;;2613927;54;20427;-73
2022/10/14 06:26:03;;;;;;;15.43;13.67;;;13.20;99.90;;;;;;2610352;39;20645;-75
2022/10/14 06:31:51;;;;;;;15.10;13.47;;;13.20;99.90;;;;;;2610397;54;20504;-75
2022/10/14 06:37:38;;;;;;;17.30;13.53;;;13.20;99.90;;;;;;2613063;54;20452;-77
2022/10/14 06:46:47;;;;;;;15.53;12.50;;;13.40;99.90;;;;;;2613426;54;20415;-75
2022/10/14 06:52:34;;;;;;;13.27;11.90;;;13.50;99.90;;;;;;2613392;54;20130;-75
2022/10/14 06:58:21;;;;;;;13.23;11.63;;;13.50;99.90;;;;;;2612618;54;20664;-74
2022/10/14 07:04:08;;;;;;;14.37;12.87;;;13.60;99.90;;;;;;2611892;54;20167;-74
2022/10/14 07:09:57;;;;;;;15.67;13.00;;;13.60;99.90;;;;;;2612207;54;20234;-76
2022/10/14 07:12:23;;;;;;;13.20;11.90;;;13.70;99.90;;;;;;2612850;46;20420;-76
2022/10/14 07:14:49;;;;;;;15.10;12.20;;;13.70;99.90;;;;;;2612381;54;20432;-75
2022/10/14 07:20:36;;;;;;;13.20;11.90;;;13.80;99.90;;;;;;2613491;54;20234;-76
2022/10/14 07:26:33;;;;;;;14.03;12.53;;;13.90;99.90;;;;;;2611709;39;20547;-74
2022/10/14 07:32:20;;;;;;;13.30;9.80;;;14.00;99.90;;;;;;2612835;54;20655;-76
2022/10/14 07:41:29;;;;;;;10.23;9.13;;;14.10;99.90;;;;;;2613068;54;20563;-76
2022/10/14 07:47:16;;;;;;;12.93;7.87;;;14.10;99.90;;;;;;2612632;54;20215;-77
2022/10/14 07:53:04;;;;;;;9.60;8.70;;;14.10;99.90;;;;;;2613902;39;20831;-75
2022/10/14 07:58:52;;;;;;;9.30;8.50;;;14.30;99.90;;;;;;2610104;54;20328;-76
2022/10/14 08:04:39;;;;;;;8.60;7.80;;;14.40;99.90;;;;;;2613585;54;20427;-73
2022/10/14 08:10:26;;;;;;;7.37;6.67;;;14.60;99.90;;;;;;2614146;39;20541;-77
2022/10/14 08:22:29;;;;;;;6.90;6.30;;;14.40;99.90;;;;;;2614262;39;20504;-78
2022/10/14 08:28:17;;;;;;;6.60;5.20;;;14.50;99.90;;;;;;2613427;54;20753;-76
2022/10/14 08:34:04;;;;;;;4.63;4.23;;;14.60;99.90;;;;;;2615303;39;20662;-76
2022/10/14 08:39:52;;;;;;;6.03;4.73;;;14.80;99.90;;;;;;2612059;54;20130;-77
2022/10/14 08:45:49;;;;;;;4.80;4.40;;;14.70;99.90;;;;;;2614739;47;20685;-76
2022/10/14 08:51:37;;;;;;;8.63;4.70;;;14.70;99.90;;;;;;2614625;47;20398;-75
2022/10/14 08:57:28;;;;;;;5.80;5.20;;;14.80;99.90;;;;;;2615568;54;21213;-77
2022/10/14 09:09:50;;;;;;;4.33;3.80;;;15.20;99.90;;;;;;2613829;54;20387;-78
2022/10/14 09:15:43;;;;;;;4.67;4.27;;;15.30;99.90;;;;;;2614197;54;20395;-75
2022/10/14 09:18:47;;;;;;;4.23;3.83;;;15.30;99.90;;;;;;2614274;54;20418;-75
2022/10/14 09:24:27;;;;;;;4.70;3.43;;;15.40;99.90;;;;;;2615070;54;20433;-75
2022/10/14 09:31:26;;;;;;;3.50;3.20;;;15.40;99.90;;;;;;2613042;54;20399;-78
2022/10/14 09:44:21;;;;;;;5.63;2.80;;;16.00;99.90;;;;;;2614777;54;20383;-76
2022/10/14 09:50:13;;;;;;;3.40;2.80;;;16.20;99.90;;;;;;2614448;39;20780;-73
2022/10/14 09:56:04;;;;;;;3.13;2.40;;;16.60;99.90;;;;;;2614321;47;20456;-77
2022/10/14 10:01:57;;;;;;;5.80;2.57;;;16.60;99.90;;;;;;2613698;54;21224;-76
2022/10/14 10:14:28;;;;;;;3.13;2.83;;;16.70;99.90;;;;;;2615705;54;20374;-75
2022/10/14 10:20:27;;;;;;;3.50;3.20;;;16.40;99.90;;;;;;2615548;54;20379;-76
2022/10/14 10:26:33;;;;;;;2.80;2.10;;;16.20;99.90;;;;;;2614425;46;20416;-75
2022/10/14 10:29:57;;;;;;;3.20;2.90;;;16.40;99.90;;;;;;2614265;39;21284;-74
2022/10/14 10:39:38;;;;;;;4.17;3.20;;;16.40;99.90;;;;;;2613147;54;20379;-75
2022/10/14 10:52:18;;;;;;;3.47;3.17;;;16.40;99.90;;;;;;2612346;39;20839;-75
2022/10/14 11:15:41;;;;;;;4.03;3.73;;;16.50;99.90;;;;;;2615756;46;20451;-75
2022/10/14 11:31:27;;;;;;;3.60;3.30;;;16.70;99.90;;;;;;2615053;54;21035;-75
2022/10/14 11:50:46;;;;;;;6.80;5.30;;;16.70;99.90;;;;;;2613124;54;20412;-76
2022/10/14 12:06:56;;;;;;;7.03;6.30;;;16.50;99.90;;;;;;2612796;54;21082;-75
2022/10/14 12:12:44;;;;;;;9.17;6.33;;;16.40;99.90;;;;;;2610584;54;20375;-75
2022/10/14 12:18:31;;;;;;;7.00;6.03;;;16.20;99.90;;;;;;2612785;54;20126;-77
2022/10/14 12:24:23;;;;;;;8.70;7.70;;;15.90;99.90;;;;;;2613055;54;20398;-77
2022/10/14 12:30:34;;;;;;;8.13;7.27;;;15.70;99.90;;;;;;2612902;54;20520;-77
2022/10/14 12:39:44;;;;;;;9.23;7.47;;;15.70;99.90;;;;;;2613648;46;20411;-78
2022/10/14 12:42:12;;;;;;;11.50;8.30;;;15.80;99.90;;;;;;2615254;54;20511;-77
2022/10/14 12:44:57;;;;;;;9.57;8.37;;;15.70;99.90;;;;;;2615777;54;20143;-78
2022/10/14 12:50:47;;;;;;;12.00;8.43;;;15.60;99.90;;;;;;2612845;54;20423;-77
2022/10/14 12:56:41;;;;;;;12.63;8.57;;;15.60;99.90;;;;;;2613390;54;20523;-76
2022/10/14 13:02:37;;;;;;;12.70;10.23;;;15.60;99.90;;;;;;2614062;54;21552;-74
2022/10/14 13:08:27;;;;;;;12.63;10.67;;;15.40;99.90;;;;;;2615098;54;20403;-78
2022/10/14 13:14:24;;;;;;;14.90;9.87;;;15.50;99.90;;;;;;2613640;54;20391;-76
2022/10/14 13:20:34;;;;;;;10.90;9.03;;;15.50;99.90;;;;;;2614449;54;20480;-78
2022/10/14 13:30:37;;;;;;;15.43;9.70;;;15.60;99.90;;;;;;2608745;54;20426;-77
2022/10/14 13:43:17;;;;;;;12.60;6.47;;;15.40;99.90;;;;;;2613925;54;20435;-77
2022/10/14 13:49:10;;;;;;;9.93;7.77;;;15.50;99.90;;;;;;2613032;54;20379;-75
2022/10/14 13:55:17;;;;;;;7.70;6.90;;;15.50;99.90;;;;;;2612987;54;20456;-72
2022/10/14 14:01:07;;;;;;;8.93;7.00;;;15.50;99.90;;;;;;2613793;54;20511;-77
2022/10/14 14:06:55;;;;;;;8.53;7.70;;;15.50;99.90;;;;;;2611005;54;20411;-77
2022/10/14 14:12:43;;;;;;;8.60;6.33;;;15.50;99.90;;;;;;2610880;54;20372;-77
2022/10/14 14:18:39;;;;;;;8.77;6.70;;;15.50;99.90;;;;;;2615070;54;20399;-76
2022/10/14 14:24:28;;;;;;;8.53;7.50;;;15.40;99.90;;;;;;2615315;54;20391;-77
2022/10/14 14:30:26;;;;;;;9.83;7.70;;;15.50;99.90;;;;;;2612101;54;20387;-76
2022/10/14 14:36:17;;;;;;;8.67;7.03;;;15.70;99.90;;;;;;2613698;54;20534;-77
2022/10/14 14:42:07;;;;;;;8.73;7.50;;;15.60;99.90;;;;;;2614424;54;20963;-76
2022/10/14 14:54:18;;;;;;;8.13;7.33;;;15.60;99.90;;;;;;2614081;54;20383;-76
2022/10/14 15:06:24;;;;;;;8.07;6.47;;;15.40;99.90;;;;;;2613700;54;21001;-76
2022/10/14 15:12:21;;;;;;;8.63;7.63;;;15.40;99.90;;;;;;2613750;54;20403;-77
2022/10/14 15:18:20;;;;;;;8.63;7.73;;;15.40;99.90;;;;;;2615269;54;20396;-76
2022/10/14 15:24:14;;;;;;;7.33;6.63;;;15.40;99.90;;;;;;2615519;54;20421;-73
2022/10/14 15:30:19;;;;;;;7.77;6.97;;;15.40;99.90;;;;;;2614748;54;20422;-76
2022/10/14 15:36:10;;;;;;;9.23;7.87;;;15.30;99.90;;;;;;2615160;54;20374;-77
2022/10/14 15:41:58;;;;;;;11.47;6.97;;;15.40;99.90;;;;;;2614900;54;20426;-76
2022/10/14 15:47:52;;;;;;;9.33;8.37;;;15.40;99.90;;;;;;2612880;54;20928;-74
2022/10/14 15:53:40;;;;;;;7.47;6.73;;;15.50;99.90;;;;;;2610487;54;20391;-76
2022/10/14 15:59:28;;;;;;;9.70;8.50;;;15.60;99.90;;;;;;2614184;54;20931;-74
2022/10/14 16:05:16;;;;;;;10.27;9.10;;;15.50;99.90;;;;;;2614429;54;20123;-76
2022/10/14 16:11:05;;;;;;;11.17;10.07;;;15.40;99.90;;;;;;2614667;54;20221;-75
2022/10/14 16:16:53;;;;;;;10.57;8.70;;;15.30;99.90;;;;;;2614656;54;20399;-74
2022/10/14 16:22:41;;;;;;;12.50;10.40;;;15.20;99.90;;;;;;2614910;54;20843;-74
2022/10/14 16:28:29;;;;;;;11.57;10.33;;;15.20;99.90;;;;;;2614942;54;20189;-78
2022/10/14 16:34:17;;;;;;;13.83;12.40;;;15.20;99.90;;;;;;2614830;54;20569;-77
2022/10/14 16:40:06;;;;;;;14.80;11.67;;;15.20;99.90;;;;;;2614196;54;20367;-76
2022/10/14 16:45:59;;;;;;;15.60;13.77;;;15.30;99.90;;;;;;2612721;54;20442;-75
2022/10/14 16:51:46;;;;;;;15.87;14.23;;;15.20;99.90;;;;;;2614346;47;20415;-74
2022/10/14 16:57:34;;;;;;;16.43;14.70;;;15.20;99.90;;;;;;2613054;54;20166;-76
2022/10/14 17:03:22;;;;;;;16.90;15.20;;;15.20;99.90;;;;;;2613201;39;20295;-76
2022/10/14 17:09:09;;;;;;;18.90;16.07;;;15.30;99.90;;;;;;2613793;54;20222;-76
2022/10/14 17:14:57;;;;;;;17.07;15.40;;;15.20;99.90;;;;;;2610184;54;20626;-76
2022/10/14 17:20:48;;;;;;;16.40;14.67;;;15.10;99.90;;;;;;2613459;54;20142;-76
2022/10/14 17:30:38;;;;;;;17.90;16.07;;;15.00;99.90;;;;;;2615295;54;20395;-76
2022/10/14 17:36:29;;;;;;;18.37;16.47;;;14.90;99.90;;;;;;2613832;54;20403;-76
2022/10/14 17:42:17;;;;;;;17.40;15.73;;;15.00;99.90;;;;;;2615668;54;20478;-74
2022/10/14 17:48:05;;;;;;;16.67;14.97;;;15.00;99.90;;;;;;2615016;39;20526;-77
2022/10/14 17:53:57;;;;;;;17.53;15.83;;;15.10;99.90;;;;;;2615046;54;20391;-76
2022/10/14 17:59:45;;;;;;;17.20;15.40;;;14.90;99.90;;;;;;2615146;54;21003;-76
2022/10/14 18:05:34;;;;;;;18.67;16.67;;;15.00;99.90;;;;;;2615355;54;20394;-75
2022/10/14 18:11:23;;;;;;;19.97;17.83;;;14.90;99.90;;;;;;2614789;39;20825;-76
2022/10/14 18:17:11;;;;;;;20.97;17.80;;;15.00;99.90;;;;;;2615267;54;20378;-75
2022/10/14 18:23:01;;;;;;;19.13;16.10;;;15.10;99.90;;;;;;2614242;54;20372;-75
2022/10/14 18:26:05;;;;;;;20.50;17.80;;;15.00;99.90;;;;;;2614000;46;20443;-80
2022/10/14 18:28:34;;;;;;;17.77;15.80;;;15.00;99.90;;;;;;2613662;54;20435;-79
2022/10/14 18:34:23;;;;;;;18.63;15.97;;;15.00;99.90;;;;;;2613584;54;20395;-76
2022/10/14 18:40:13;;;;;;;20.40;16.30;;;15.00;99.90;;;;;;2615599;54;20395;-75
2022/10/14 18:52:28;;;;;;;19.40;16.30;;;14.90;99.90;;;;;;2615355;54;20512;-75
2022/10/14 18:58:17;;;;;;;19.17;16.50;;;14.80;99.90;;;;;;2614282;54;20134;-73
2022/10/14 19:04:09;;;;;;;18.27;14.80;;;14.50;99.90;;;;;;2615349;54;20390;-75
2022/10/14 19:09:57;;;;;;;17.57;15.67;;;14.50;99.90;;;;;;2613489;31;20847;-78
2022/10/14 19:15:47;;;;;;;21.33;17.70;;;14.40;99.90;;;;;;2615278;54;20166;-78
2022/10/14 19:21:35;;;;;;;21.27;17.90;;;14.30;99.90;;;;;;2613813;54;20443;-77
2022/10/14 19:30:45;;;;;;;21.80;15.97;;;14.20;99.90;;;;;;2615494;54;20399;-76
2022/10/14 19:36:34;;;;;;;25.70;16.60;;;14.30;99.90;;;;;;2614496;54;20231;-76
2022/10/14 19:42:22;;;;;;;20.90;14.33;;;14.30;99.90;;;;;;2614239;54;20956;-76
2022/10/14 19:48:10;;;;;;;22.50;16.47;;;14.30;99.90;;;;;;2614222;54;20134;-76
2022/10/14 19:53:59;;;;;;;16.77;13.87;;;14.40;99.90;;;;;;2613154;54;20813;-77
2022/10/14 19:59:47;;;;;;;24.10;16.40;;;14.50;99.90;;;;;;2613867;54;20423;-80
2022/10/14 20:05:34;;;;;;;22.50;19.50;;;14.50;99.90;;;;;;2613646;54;20130;-75
2022/10/14 20:11:23;;;;;;;22.00;17.37;;;14.40;99.90;;;;;;2614310;54;20158;-75
2022/10/14 20:17:11;;;;;;;24.10;17.00;;;14.30;99.90;;;;;;2614575;54;20403;-78
2022/10/14 20:22:59;;;;;;;19.10;15.27;;;14.20;99.90;;;;;;2613439;54;20154;-78
2022/10/14 20:26:08;;;;;;;19.63;16.07;;;14.30;99.90;;;;;;2613367;46;20550;-76
2022/10/14 20:28:35;;;;;;;18.30;15.20;;;14.30;99.90;;;;;;2612632;54;20155;-77
2022/10/14 20:34:24;;;;;;;24.27;16.90;;;14.30;99.90;;;;;;2612563;54;20379;-75
2022/10/14 20:40:12;;;;;;;19.47;16.00;;;14.20;99.90;;;;;;2614361;46;20450;-76
2022/10/14 20:45:59;;;;;;;23.90;16.90;;;14.20;99.90;;;;;;2613929;54;20680;-77
2022/10/14 20:51:47;;;;;;;22.43;15.83;;;14.20;99.90;;;;;;2615210;54;20122;-77
2022/10/14 20:57:35;;;;;;;21.90;16.50;;;14.10;99.90;;;;;;2615300;54;20130;-77
2022/10/14 21:03:23;;;;;;;18.67;16.67;;;14.30;99.90;;;;;;2615675;39;20833;-77
2022/10/14 21:09:11;;;;;;;20.90;15.90;;;14.10;99.90;;;;;;2615548;54;20134;-76
2022/10/14 21:14:58;;;;;;;24.33;16.20;;;14.00;99.90;;;;;;2615241;54;20134;-77
2022/10/14 21:20:46;;;;;;;18.87;15.07;;;13.90;99.90;;;;;;2615982;54;20382;-76
2022/10/14 21:30:39;;;;;;;19.90;15.80;;;14.00;99.90;;;;;;2616045;54;20455;-77
2022/10/14 21:36:27;;;;;;;19.70;15.97;;;14.00;99.90;;;;;;2615183;54;20935;-75
2022/10/14 21:42:14;;;;;;;18.13;16.10;;;14.00;99.90;;;;;;2613327;54;20151;-75
2022/10/14 21:48:02;;;;;;;17.40;14.30;;;14.00;99.90;;;;;;2615249;54;20170;-76
2022/10/14 21:53:50;;;;;;;18.53;14.83;;;13.90;99.90;;;;;;2615528;31;20658;-76
2022/10/14 21:59:38;;;;;;;19.30;15.37;;;13.90;99.90;;;;;;2614247;54;20161;-77
2022/10/14 22:05:26;;;;;;;19.13;14.33;;;14.00;99.90;;;;;;2614344;54;20196;-77
2022/10/14 22:11:22;;;;;;;19.33;17.20;;;13.90;99.90;;;;;;2615104;54;20174;-78
2022/10/14 22:17:10;;;;;;;19.40;15.77;;;14.00;99.90;;;;;;2614790;54;20399;-78
2022/10/14 22:22:58;;;;;;;18.43;16.43;;;14.00;99.90;;;;;;2615202;54;20122;-77
2022/10/14 22:26:08;;;;;;;22.40;16.20;;;14.00;99.90;;;;;;2613873;54;20431;-77
2022/10/14 22:28:34;;;;;;;18.77;16.30;;;14.10;99.90;;;;;;2611656;54;20235;-77
2022/10/14 22:34:22;;;;;;;17.60;15.53;;;14.10;99.90;;;;;;2614194;54;20130;-78
2022/10/14 22:40:10;;;;;;;21.37;17.40;;;14.00;99.90;;;;;;2614711;54;20404;-75
2022/10/14 22:46:04;;;;;;;18.43;15.93;;;14.00;99.90;;;;;;2615286;54;20158;-78
2022/10/14 22:51:52;;;;;;;22.50;15.90;;;13.90;99.90;;;;;;2614972;54;20959;-75
2022/10/14 22:57:40;;;;;;;19.20;16.13;;;13.90;99.90;;;;;;2614403;39;20672;-77
2022/10/14 23:03:29;;;;;;;18.53;14.93;;;13.90;99.90;;;;;;2615683;54;20165;-76
2022/10/14 23:09:17;;;;;;;17.63;15.67;;;13.90;99.90;;;;;;2615471;54;20431;-77
2022/10/14 23:15:05;;;;;;;16.90;14.90;;;14.00;99.90;;;;;;2615133;54;20205;-78
2022/10/14 23:20:53;;;;;;;16.30;13.43;;;14.00;99.90;;;;;;2615129;39;20852;-77
2022/10/14 23:30:40;;;;;;;19.77;15.30;;;14.10;99.90;;;;;;2615040;54;20399;-76
2022/10/14 23:36:28;;;;;;;18.40;13.77;;;14.00;99.90;;;;;;2615121;54;20423;-77
2022/10/14 23:42:15;;;;;;;17.00;14.77;;;13.90;99.90;;;;;;2614802;54;20366;-76
2022/10/14 23:48:03;;;;;;;20.23;14.50;;;13.80;99.90;;;;;;2613867;54;20170;-77
2022/10/14 23:53:51;;;;;;;19.70;14.90;;;13.80;99.90;;;;;;2614626;54;20154;-79
2022/10/14 23:59:39;;;;;;;24.37;15.60;;;13.60;99.90;;;;;;2615192;54;20194;-75
